sensor_id;sensor_type;location;lat;lon;timestamp;P1;durP1;ratioP1;P2;durP2;ratioP2
54539;SDS011;40438;52.992;18.604;2023-04-01T00:00:19;6.13;;;3.03;;
54539;SDS011;40438;52.992;18.604;2023-04-01T00:02:46;4.93;;;2.65;;
54539;SDS011;40438;52.992;18.604;2023-04-01T00:05:12;5.72;;;3.25;;
54539;SDS011;40438;52.992;18.604;2023-04-01T00:07:39;6.15;;;3.03;;
54539;SDS011;40438;52.992;18.604;2023-04-01T00:10:08;4.13;;;2.85;;
54539;SDS011;40438;52.992;18.604;2023-04-01T00:12:36;5.25;;;2.83;;
54539;SDS011;40438;52.992;18.604;2023-04-01T00:15:02;4.70;;;2.90;;
54539;SDS011;40438;52.992;18.604;2023-04-01T00:17:29;4.88;;;2.97;;
54539;SDS011;40438;52.992;18.604;2023-04-01T00:19:55;6.53;;;3.53;;
54539;SDS011;40438;52.992;18.604;2023-04-01T00:22:21;5.22;;;3.40;;
54539;SDS011;40438;52.992;18.604;2023-04-01T00:24:47;4.53;;;2.47;;
54539;SDS011;40438;52.992;18.604;2023-04-01T00:27:14;4.95;;;3.10;;
54539;SDS011;40438;52.992;18.604;2023-04-01T00:29:41;4.97;;;3.03;;
54539;SDS011;40438;52.992;18.604;2023-04-01T00:32:07;5.95;;;2.70;;
54539;SDS011;40438;52.992;18.604;2023-04-01T00:34:33;5.22;;;2.97;;
54539;SDS011;40438;52.992;18.604;2023-04-01T00:36:59;6.45;;;3.30;;
54539;SDS011;40438;52.992;18.604;2023-04-01T00:39:24;5.50;;;3.00;;
54539;SDS011;40438;52.992;18.604;2023-04-01T00:41:50;5.97;;;3.40;;
54539;SDS011;40438;52.992;18.604;2023-04-01T00:44:18;4.38;;;2.80;;
54539;SDS011;40438;52.992;18.604;2023-04-01T00:46:45;6.70;;;2.67;;
54539;SDS011;40438;52.992;18.604;2023-04-01T00:49:11;5.18;;;2.83;;
54539;SDS011;40438;52.992;18.604;2023-04-01T00:51:38;5.30;;;3.03;;
54539;SDS011;40438;52.992;18.604;2023-04-01T00:54:04;4.85;;;2.90;;
54539;SDS011;40438;52.992;18.604;2023-04-01T00:56:31;4.68;;;2.63;;
54539;SDS011;40438;52.992;18.604;2023-04-01T00:59:01;5.15;;;2.85;;
54539;SDS011;40438;52.992;18.604;2023-04-01T01:01:30;6.13;;;3.00;;
54539;SDS011;40438;52.992;18.604;2023-04-01T01:03:57;6.45;;;2.95;;
54539;SDS011;40438;52.992;18.604;2023-04-01T01:06:25;4.38;;;3.00;;
54539;SDS011;40438;52.992;18.604;2023-04-01T01:09:17;4.80;;;3.15;;
54539;SDS011;40438;52.992;18.604;2023-04-01T01:14:23;4.80;;;2.90;;
54539;SDS011;40438;52.992;18.604;2023-04-01T01:16:58;4.43;;;2.80;;
54539;SDS011;40438;52.992;18.604;2023-04-01T01:19:39;5.05;;;2.90;;
54539;SDS011;40438;52.992;18.604;2023-04-01T01:22:19;5.65;;;3.13;;
54539;SDS011;40438;52.992;18.604;2023-04-01T01:24:56;4.45;;;2.85;;
54539;SDS011;40438;52.992;18.604;2023-04-01T01:27:39;6.25;;;3.45;;
54539;SDS011;40438;52.992;18.604;2023-04-01T01:30:21;7.05;;;3.33;;
54539;SDS011;40438;52.992;18.604;2023-04-01T01:33:05;4.55;;;3.20;;
54539;SDS011;40438;52.992;18.604;2023-04-01T01:35:54;6.85;;;2.90;;
54539;SDS011;40438;52.992;18.604;2023-04-01T01:38:26;5.53;;;3.33;;
54539;SDS011;40438;52.992;18.604;2023-04-01T01:41:02;4.95;;;2.90;;
54539;SDS011;40438;52.992;18.604;2023-04-01T01:43:32;4.15;;;3.17;;
54539;SDS011;40438;52.992;18.604;2023-04-01T01:46:03;5.47;;;3.30;;
54539;SDS011;40438;52.992;18.604;2023-04-01T01:48:34;4.85;;;3.00;;
54539;SDS011;40438;52.992;18.604;2023-04-01T01:51:02;3.85;;;2.70;;
54539;SDS011;40438;52.992;18.604;2023-04-01T01:53:30;4.47;;;2.95;;
54539;SDS011;40438;52.992;18.604;2023-04-01T01:55:56;4.80;;;2.70;;
54539;SDS011;40438;52.992;18.604;2023-04-01T01:58:22;5.55;;;2.97;;
54539;SDS011;40438;52.992;18.604;2023-04-01T02:00:52;4.70;;;3.00;;
54539;SDS011;40438;52.992;18.604;2023-04-01T02:03:21;4.68;;;2.80;;
54539;SDS011;40438;52.992;18.604;2023-04-01T02:05:51;5.28;;;3.13;;
54539;SDS011;40438;52.992;18.604;2023-04-01T02:08:22;5.85;;;3.20;;
54539;SDS011;40438;52.992;18.604;2023-04-01T02:10:56;5.23;;;3.13;;
54539;SDS011;40438;52.992;18.604;2023-04-01T02:13:29;5.85;;;3.00;;
54539;SDS011;40438;52.992;18.604;2023-04-01T02:16:02;3.88;;;2.33;;
54539;SDS011;40438;52.992;18.604;2023-04-01T02:18:31;6.32;;;3.15;;
54539;SDS011;40438;52.992;18.604;2023-04-01T02:20:58;6.22;;;2.83;;
54539;SDS011;40438;52.992;18.604;2023-04-01T02:23:27;6.55;;;3.00;;
54539;SDS011;40438;52.992;18.604;2023-04-01T02:25:53;4.50;;;3.30;;
54539;SDS011;40438;52.992;18.604;2023-04-01T02:28:20;5.07;;;3.50;;
54539;SDS011;40438;52.992;18.604;2023-04-01T02:30:47;4.72;;;3.22;;
54539;SDS011;40438;52.992;18.604;2023-04-01T02:33:15;5.75;;;2.90;;
54539;SDS011;40438;52.992;18.604;2023-04-01T02:35:41;6.00;;;3.03;;
54539;SDS011;40438;52.992;18.604;2023-04-01T02:38:07;4.78;;;3.15;;
54539;SDS011;40438;52.992;18.604;2023-04-01T02:40:42;4.63;;;2.85;;
54539;SDS011;40438;52.992;18.604;2023-04-01T02:43:10;4.45;;;3.10;;
54539;SDS011;40438;52.992;18.604;2023-04-01T02:45:35;5.10;;;2.90;;
54539;SDS011;40438;52.992;18.604;2023-04-01T02:48:01;5.88;;;3.58;;
54539;SDS011;40438;52.992;18.604;2023-04-01T02:50:27;3.80;;;2.80;;
54539;SDS011;40438;52.992;18.604;2023-04-01T02:52:53;4.90;;;3.15;;
54539;SDS011;40438;52.992;18.604;2023-04-01T02:55:19;3.50;;;2.88;;
54539;SDS011;40438;52.992;18.604;2023-04-01T02:57:46;4.53;;;3.10;;
54539;SDS011;40438;52.992;18.604;2023-04-01T03:00:13;4.35;;;2.85;;
54539;SDS011;40438;52.992;18.604;2023-04-01T03:02:39;4.75;;;2.92;;
54539;SDS011;40438;52.992;18.604;2023-04-01T03:05:05;4.32;;;2.80;;
54539;SDS011;40438;52.992;18.604;2023-04-01T03:07:32;4.05;;;2.80;;
54539;SDS011;40438;52.992;18.604;2023-04-01T03:09:58;5.53;;;3.25;;
54539;SDS011;40438;52.992;18.604;2023-04-01T03:12:23;4.65;;;2.58;;
54539;SDS011;40438;52.992;18.604;2023-04-01T03:14:52;4.35;;;2.75;;
54539;SDS011;40438;52.992;18.604;2023-04-01T03:17:18;4.88;;;2.83;;
54539;SDS011;40438;52.992;18.604;2023-04-01T03:19:44;4.65;;;2.60;;
54539;SDS011;40438;52.992;18.604;2023-04-01T03:22:10;3.50;;;2.78;;
54539;SDS011;40438;52.992;18.604;2023-04-01T03:24:36;3.80;;;2.80;;
54539;SDS011;40438;52.992;18.604;2023-04-01T03:27:02;3.78;;;2.75;;
54539;SDS011;40438;52.992;18.604;2023-04-01T03:29:29;4.43;;;2.95;;
54539;SDS011;40438;52.992;18.604;2023-04-01T03:31:56;3.97;;;2.85;;
54539;SDS011;40438;52.992;18.604;2023-04-01T03:34:22;5.25;;;3.10;;
54539;SDS011;40438;52.992;18.604;2023-04-01T03:36:48;4.57;;;3.20;;
54539;SDS011;40438;52.992;18.604;2023-04-01T03:39:14;5.55;;;3.13;;
54539;SDS011;40438;52.992;18.604;2023-04-01T03:41:40;3.60;;;2.75;;
54539;SDS011;40438;52.992;18.604;2023-04-01T03:44:06;2.95;;;2.47;;
54539;SDS011;40438;52.992;18.604;2023-04-01T03:46:32;3.67;;;2.65;;
54539;SDS011;40438;52.992;18.604;2023-04-01T03:48:59;5.80;;;2.97;;
54539;SDS011;40438;52.992;18.604;2023-04-01T03:51:25;4.15;;;2.67;;
54539;SDS011;40438;52.992;18.604;2023-04-01T03:53:51;4.07;;;2.92;;
54539;SDS011;40438;52.992;18.604;2023-04-01T03:56:17;4.53;;;3.00;;
54539;SDS011;40438;52.992;18.604;2023-04-01T03:58:43;3.75;;;2.72;;
54539;SDS011;40438;52.992;18.604;2023-04-01T04:01:16;4.45;;;2.63;;
54539;SDS011;40438;52.992;18.604;2023-04-01T04:03:44;4.70;;;3.15;;
54539;SDS011;40438;52.992;18.604;2023-04-01T04:06:12;3.60;;;2.75;;
54539;SDS011;40438;52.992;18.604;2023-04-01T04:08:39;5.30;;;3.15;;
54539;SDS011;40438;52.992;18.604;2023-04-01T04:11:05;4.57;;;3.00;;
54539;SDS011;40438;52.992;18.604;2023-04-01T04:13:31;5.53;;;3.55;;
54539;SDS011;40438;52.992;18.604;2023-04-01T04:16:00;5.15;;;2.85;;
54539;SDS011;40438;52.992;18.604;2023-04-01T04:18:26;5.10;;;3.38;;
54539;SDS011;40438;52.992;18.604;2023-04-01T04:20:52;4.03;;;2.97;;
54539;SDS011;40438;52.992;18.604;2023-04-01T04:23:20;6.95;;;3.17;;
54539;SDS011;40438;52.992;18.604;2023-04-01T04:25:53;4.18;;;2.80;;
54539;SDS011;40438;52.992;18.604;2023-04-01T04:28:19;4.97;;;3.20;;
54539;SDS011;40438;52.992;18.604;2023-04-01T04:30:46;4.28;;;3.00;;
54539;SDS011;40438;52.992;18.604;2023-04-01T04:33:12;4.97;;;2.83;;
54539;SDS011;40438;52.992;18.604;2023-04-01T04:35:37;6.13;;;3.60;;
54539;SDS011;40438;52.992;18.604;2023-04-01T04:38:03;6.45;;;2.90;;
54539;SDS011;40438;52.992;18.604;2023-04-01T04:40:30;4.57;;;3.30;;
54539;SDS011;40438;52.992;18.604;2023-04-01T04:42:56;5.32;;;3.13;;
54539;SDS011;40438;52.992;18.604;2023-04-01T04:45:22;5.55;;;3.20;;
54539;SDS011;40438;52.992;18.604;2023-04-01T04:47:54;5.72;;;3.00;;
54539;SDS011;40438;52.992;18.604;2023-04-01T04:50:19;4.88;;;3.17;;
54539;SDS011;40438;52.992;18.604;2023-04-01T04:52:45;4.45;;;3.15;;
54539;SDS011;40438;52.992;18.604;2023-04-01T04:55:11;4.45;;;2.67;;
54539;SDS011;40438;52.992;18.604;2023-04-01T04:57:40;6.38;;;3.25;;
54539;SDS011;40438;52.992;18.604;2023-04-01T05:00:06;4.82;;;3.20;;
54539;SDS011;40438;52.992;18.604;2023-04-01T05:05:24;7.65;;;3.40;;
54539;SDS011;40438;52.992;18.604;2023-04-01T05:07:50;4.75;;;3.20;;
54539;SDS011;40438;52.992;18.604;2023-04-01T05:10:16;7.43;;;3.17;;
54539;SDS011;40438;52.992;18.604;2023-04-01T05:12:43;4.18;;;3.35;;
54539;SDS011;40438;52.992;18.604;2023-04-01T05:15:14;4.78;;;3.05;;
54539;SDS011;40438;52.992;18.604;2023-04-01T05:17:39;4.05;;;3.17;;
54539;SDS011;40438;52.992;18.604;2023-04-01T05:20:07;6.07;;;3.20;;
54539;SDS011;40438;52.992;18.604;2023-04-01T05:22:34;10.13;;;4.07;;
54539;SDS011;40438;52.992;18.604;2023-04-01T05:25:00;4.13;;;2.72;;
54539;SDS011;40438;52.992;18.604;2023-04-01T05:27:27;4.53;;;3.20;;
54539;SDS011;40438;52.992;18.604;2023-04-01T05:29:54;5.45;;;3.38;;
54539;SDS011;40438;52.992;18.604;2023-04-01T05:32:44;6.90;;;2.90;;
54539;SDS011;40438;52.992;18.604;2023-04-01T05:35:10;5.80;;;3.10;;
54539;SDS011;40438;52.992;18.604;2023-04-01T05:37:36;4.28;;;3.13;;
54539;SDS011;40438;52.992;18.604;2023-04-01T05:40:03;5.68;;;3.85;;
54539;SDS011;40438;52.992;18.604;2023-04-01T05:42:30;3.67;;;2.80;;
54539;SDS011;40438;52.992;18.604;2023-04-01T05:44:57;8.40;;;2.63;;
54539;SDS011;40438;52.992;18.604;2023-04-01T05:47:41;3.75;;;2.75;;
54539;SDS011;40438;52.992;18.604;2023-04-01T05:50:07;5.65;;;3.17;;
54539;SDS011;40438;52.992;18.604;2023-04-01T05:52:34;6.55;;;3.15;;
54539;SDS011;40438;52.992;18.604;2023-04-01T05:54:59;4.97;;;3.00;;
54539;SDS011;40438;52.992;18.604;2023-04-01T05:57:25;4.82;;;2.97;;
54539;SDS011;40438;52.992;18.604;2023-04-01T05:59:51;4.15;;;3.10;;
54539;SDS011;40438;52.992;18.604;2023-04-01T06:02:18;5.63;;;3.17;;
54539;SDS011;40438;52.992;18.604;2023-04-01T06:04:44;4.35;;;3.10;;
54539;SDS011;40438;52.992;18.604;2023-04-01T06:07:11;3.78;;;2.70;;
54539;SDS011;40438;52.992;18.604;2023-04-01T06:09:37;5.40;;;3.20;;
54539;SDS011;40438;52.992;18.604;2023-04-01T06:15:09;4.18;;;2.85;;
54539;SDS011;40438;52.992;18.604;2023-04-01T06:17:48;3.50;;;2.92;;
54539;SDS011;40438;52.992;18.604;2023-04-01T06:20:26;4.65;;;2.95;;
54539;SDS011;40438;52.992;18.604;2023-04-01T06:23:09;4.60;;;2.97;;
54539;SDS011;40438;52.992;18.604;2023-04-01T06:26:05;4.57;;;2.90;;
54539;SDS011;40438;52.992;18.604;2023-04-01T06:28:42;5.07;;;3.45;;
54539;SDS011;40438;52.992;18.604;2023-04-01T06:31:25;6.85;;;3.78;;
54539;SDS011;40438;52.992;18.604;2023-04-01T06:34:08;9.25;;;3.33;;
54539;SDS011;40438;52.992;18.604;2023-04-01T06:37:03;6.57;;;3.33;;
54539;SDS011;40438;52.992;18.604;2023-04-01T06:39:50;6.32;;;3.63;;
54539;SDS011;40438;52.992;18.604;2023-04-01T06:42:32;8.30;;;3.58;;
54539;SDS011;40438;52.992;18.604;2023-04-01T06:45:32;3.75;;;2.92;;
54539;SDS011;40438;52.992;18.604;2023-04-01T06:48:36;4.88;;;3.30;;
54539;SDS011;40438;52.992;18.604;2023-04-01T06:51:32;7.63;;;3.70;;
54539;SDS011;40438;52.992;18.604;2023-04-01T06:54:24;4.75;;;3.50;;
54539;SDS011;40438;52.992;18.604;2023-04-01T06:57:05;8.83;;;2.83;;
54539;SDS011;40438;52.992;18.604;2023-04-01T06:59:42;4.30;;;2.85;;
54539;SDS011;40438;52.992;18.604;2023-04-01T07:02:13;5.65;;;3.40;;
54539;SDS011;40438;52.992;18.604;2023-04-01T07:04:48;5.93;;;3.58;;
54539;SDS011;40438;52.992;18.604;2023-04-01T07:07:18;6.28;;;3.40;;
54539;SDS011;40438;52.992;18.604;2023-04-01T07:09:58;5.10;;;3.72;;
54539;SDS011;40438;52.992;18.604;2023-04-01T07:12:33;14.57;;;3.75;;
54539;SDS011;40438;52.992;18.604;2023-04-01T07:15:24;5.80;;;3.60;;
54539;SDS011;40438;52.992;18.604;2023-04-01T07:17:54;10.40;;;4.28;;
54539;SDS011;40438;52.992;18.604;2023-04-01T07:20:24;11.52;;;3.40;;
54539;SDS011;40438;52.992;18.604;2023-04-01T07:22:56;5.63;;;3.60;;
54539;SDS011;40438;52.992;18.604;2023-04-01T07:25:29;6.43;;;3.70;;
54539;SDS011;40438;52.992;18.604;2023-04-01T07:28:22;12.40;;;3.70;;
54539;SDS011;40438;52.992;18.604;2023-04-01T07:31:00;6.38;;;3.70;;
54539;SDS011;40438;52.992;18.604;2023-04-01T07:33:33;5.85;;;4.28;;
54539;SDS011;40438;52.992;18.604;2023-04-01T07:36:06;12.60;;;3.53;;
54539;SDS011;40438;52.992;18.604;2023-04-01T07:38:41;41.45;;;15.30;;
54539;SDS011;40438;52.992;18.604;2023-04-01T07:41:38;33.83;;;8.55;;
54539;SDS011;40438;52.992;18.604;2023-04-01T07:44:13;20.52;;;6.95;;
54539;SDS011;40438;52.992;18.604;2023-04-01T07:46:53;27.05;;;7.55;;
54539;SDS011;40438;52.992;18.604;2023-04-01T07:49:29;24.08;;;6.32;;
54539;SDS011;40438;52.992;18.604;2023-04-01T07:52:04;26.33;;;6.50;;
54539;SDS011;40438;52.992;18.604;2023-04-01T07:54:41;18.88;;;6.90;;
54539;SDS011;40438;52.992;18.604;2023-04-01T07:57:14;22.80;;;6.28;;
54539;SDS011;40438;52.992;18.604;2023-04-01T07:59:54;23.08;;;6.35;;
54539;SDS011;40438;52.992;18.604;2023-04-01T08:02:31;28.00;;;8.48;;
54539;SDS011;40438;52.992;18.604;2023-04-01T08:05:03;12.43;;;6.03;;
54539;SDS011;40438;52.992;18.604;2023-04-01T08:07:40;17.25;;;6.32;;
54539;SDS011;40438;52.992;18.604;2023-04-01T08:10:35;14.10;;;6.05;;
54539;SDS011;40438;52.992;18.604;2023-04-01T08:13:26;20.95;;;6.57;;
54539;SDS011;40438;52.992;18.604;2023-04-01T08:16:38;16.92;;;5.72;;
54539;SDS011;40438;52.992;18.604;2023-04-01T08:19:20;18.58;;;6.28;;
54539;SDS011;40438;52.992;18.604;2023-04-01T08:21:57;13.55;;;5.85;;
54539;SDS011;40438;52.992;18.604;2023-04-01T08:24:29;13.40;;;6.35;;
54539;SDS011;40438;52.992;18.604;2023-04-01T08:27:03;11.98;;;5.78;;
54539;SDS011;40438;52.992;18.604;2023-04-01T08:29:36;15.48;;;6.43;;
54539;SDS011;40438;52.992;18.604;2023-04-01T08:32:08;27.58;;;11.98;;
54539;SDS011;40438;52.992;18.604;2023-04-01T08:34:39;18.20;;;9.30;;
54539;SDS011;40438;52.992;18.604;2023-04-01T08:37:15;18.65;;;7.63;;
54539;SDS011;40438;52.992;18.604;2023-04-01T08:39:49;19.95;;;8.05;;
54539;SDS011;40438;52.992;18.604;2023-04-01T08:42:34;17.73;;;8.25;;
54539;SDS011;40438;52.992;18.604;2023-04-01T08:45:24;18.48;;;7.63;;
54539;SDS011;40438;52.992;18.604;2023-04-01T08:48:23;17.38;;;6.75;;
54539;SDS011;40438;52.992;18.604;2023-04-01T08:54:39;13.25;;;6.60;;
54539;SDS011;40438;52.992;18.604;2023-04-01T08:57:17;16.50;;;6.43;;
54539;SDS011;40438;52.992;18.604;2023-04-01T09:00:13;16.48;;;6.40;;
54539;SDS011;40438;52.992;18.604;2023-04-01T09:03:10;13.02;;;6.70;;
54539;SDS011;40438;52.992;18.604;2023-04-01T09:05:57;15.10;;;6.82;;
54539;SDS011;40438;52.992;18.604;2023-04-01T09:08:46;12.55;;;5.60;;
54539;SDS011;40438;52.992;18.604;2023-04-01T09:11:28;13.68;;;6.15;;
54539;SDS011;40438;52.992;18.604;2023-04-01T09:14:23;16.45;;;6.50;;
54539;SDS011;40438;52.992;18.604;2023-04-01T09:20:32;20.60;;;6.75;;
54539;SDS011;40438;52.992;18.604;2023-04-01T09:26:24;14.93;;;6.18;;
54539;SDS011;40438;52.992;18.604;2023-04-01T09:29:22;10.27;;;6.05;;
54539;SDS011;40438;52.992;18.604;2023-04-01T09:32:10;16.98;;;6.30;;
54539;SDS011;40438;52.992;18.604;2023-04-01T09:34:57;14.18;;;6.25;;
54539;SDS011;40438;52.992;18.604;2023-04-01T09:37:39;17.33;;;7.20;;
54539;SDS011;40438;52.992;18.604;2023-04-01T09:40:24;20.63;;;7.00;;
54539;SDS011;40438;52.992;18.604;2023-04-01T09:43:06;12.70;;;6.60;;
54539;SDS011;40438;52.992;18.604;2023-04-01T09:48:43;18.30;;;6.65;;
54539;SDS011;40438;52.992;18.604;2023-04-01T09:51:39;13.60;;;6.30;;
54539;SDS011;40438;52.992;18.604;2023-04-01T09:54:20;19.50;;;6.13;;
54539;SDS011;40438;52.992;18.604;2023-04-01T09:57:04;12.18;;;8.43;;
54539;SDS011;40438;52.992;18.604;2023-04-01T10:15:29;10.48;;;4.95;;
54539;SDS011;40438;52.992;18.604;2023-04-01T10:24:32;8.50;;;4.60;;
54539;SDS011;40438;52.992;18.604;2023-04-01T10:30:34;6.95;;;4.35;;
54539;SDS011;40438;52.992;18.604;2023-04-01T10:36:40;8.57;;;4.88;;
54539;SDS011;40438;52.992;18.604;2023-04-01T10:42:47;7.93;;;4.35;;
54539;SDS011;40438;52.992;18.604;2023-04-01T10:55:37;6.20;;;4.25;;
54539;SDS011;40438;52.992;18.604;2023-04-01T10:59:06;6.28;;;4.55;;
54539;SDS011;40438;52.992;18.604;2023-04-01T11:02:38;8.43;;;4.22;;
54539;SDS011;40438;52.992;18.604;2023-04-01T11:12:03;7.45;;;4.38;;
54539;SDS011;40438;52.992;18.604;2023-04-01T11:24:06;9.98;;;4.82;;
54539;SDS011;40438;52.992;18.604;2023-04-01T11:27:00;8.10;;;4.72;;
54539;SDS011;40438;52.992;18.604;2023-04-01T11:29:50;7.72;;;3.78;;
54539;SDS011;40438;52.992;18.604;2023-04-01T11:32:31;6.65;;;4.15;;
54539;SDS011;40438;52.992;18.604;2023-04-01T11:38:24;11.02;;;4.18;;
54539;SDS011;40438;52.992;18.604;2023-04-01T11:41:36;23.35;;;4.97;;
54539;SDS011;40438;52.992;18.604;2023-04-01T11:44:46;6.40;;;3.80;;
54539;SDS011;40438;52.992;18.604;2023-04-01T11:47:42;6.03;;;3.58;;
54539;SDS011;40438;52.992;18.604;2023-04-01T11:50:20;7.60;;;3.70;;
54539;SDS011;40438;52.992;18.604;2023-04-01T11:52:59;6.22;;;3.92;;
54539;SDS011;40438;52.992;18.604;2023-04-01T11:55:38;6.32;;;3.53;;
54539;SDS011;40438;52.992;18.604;2023-04-01T12:01:25;4.70;;;3.30;;
54539;SDS011;40438;52.992;18.604;2023-04-01T12:04:10;11.00;;;3.53;;
54539;SDS011;40438;52.992;18.604;2023-04-01T12:07:06;9.68;;;3.35;;
54539;SDS011;40438;52.992;18.604;2023-04-01T12:09:45;11.93;;;3.65;;
54539;SDS011;40438;52.992;18.604;2023-04-01T12:12:19;8.98;;;3.92;;
54539;SDS011;40438;52.992;18.604;2023-04-01T12:14:54;8.20;;;3.50;;
54539;SDS011;40438;52.992;18.604;2023-04-01T12:17:34;6.57;;;4.10;;
54539;SDS011;40438;52.992;18.604;2023-04-01T12:20:18;4.68;;;3.85;;
54539;SDS011;40438;52.992;18.604;2023-04-01T12:22:53;6.68;;;4.00;;
54539;SDS011;40438;52.992;18.604;2023-04-01T12:25:35;10.32;;;4.20;;
54539;SDS011;40438;52.992;18.604;2023-04-01T12:28:15;8.05;;;4.35;;
54539;SDS011;40438;52.992;18.604;2023-04-01T12:30:52;8.10;;;4.10;;
54539;SDS011;40438;52.992;18.604;2023-04-01T12:36:28;6.30;;;4.18;;
54539;SDS011;40438;52.992;18.604;2023-04-01T12:39:20;7.05;;;4.80;;
54539;SDS011;40438;52.992;18.604;2023-04-01T12:41:59;6.35;;;4.18;;
54539;SDS011;40438;52.992;18.604;2023-04-01T12:47:23;7.47;;;4.05;;
54539;SDS011;40438;52.992;18.604;2023-04-01T12:50:22;8.23;;;4.25;;
54539;SDS011;40438;52.992;18.604;2023-04-01T12:53:14;6.97;;;3.90;;
54539;SDS011;40438;52.992;18.604;2023-04-01T12:55:53;8.52;;;3.70;;
54539;SDS011;40438;52.992;18.604;2023-04-01T13:04:23;8.02;;;3.58;;
54539;SDS011;40438;52.992;18.604;2023-04-01T13:07:10;8.15;;;3.42;;
54539;SDS011;40438;52.992;18.604;2023-04-01T13:09:51;5.90;;;3.63;;
54539;SDS011;40438;52.992;18.604;2023-04-01T13:15:25;9.40;;;3.40;;
54539;SDS011;40438;52.992;18.604;2023-04-01T13:17:55;4.85;;;2.95;;
54539;SDS011;40438;52.992;18.604;2023-04-01T13:20:36;6.82;;;3.53;;
54539;SDS011;40438;52.992;18.604;2023-04-01T13:23:16;5.43;;;3.33;;
54539;SDS011;40438;52.992;18.604;2023-04-01T13:25:58;4.13;;;3.13;;
54539;SDS011;40438;52.992;18.604;2023-04-01T13:28:32;3.92;;;2.78;;
54539;SDS011;40438;52.992;18.604;2023-04-01T13:31:05;7.35;;;2.75;;
54539;SDS011;40438;52.992;18.604;2023-04-01T13:33:41;4.50;;;2.72;;
54539;SDS011;40438;52.992;18.604;2023-04-01T13:36:15;6.88;;;3.63;;
54539;SDS011;40438;52.992;18.604;2023-04-01T13:38:50;5.65;;;2.95;;
54539;SDS011;40438;52.992;18.604;2023-04-01T13:41:40;6.07;;;2.80;;
54539;SDS011;40438;52.992;18.604;2023-04-01T13:44:22;5.00;;;2.72;;
54539;SDS011;40438;52.992;18.604;2023-04-01T13:46:59;7.15;;;4.15;;
54539;SDS011;40438;52.992;18.604;2023-04-01T13:49:50;8.50;;;3.13;;
54539;SDS011;40438;52.992;18.604;2023-04-01T13:52:49;9.77;;;3.08;;
54539;SDS011;40438;52.992;18.604;2023-04-01T13:55:33;7.95;;;3.50;;
54539;SDS011;40438;52.992;18.604;2023-04-01T14:00:59;4.18;;;2.63;;
54539;SDS011;40438;52.992;18.604;2023-04-01T14:06:40;6.22;;;2.42;;
54539;SDS011;40438;52.992;18.604;2023-04-01T14:09:25;4.45;;;2.65;;
54539;SDS011;40438;52.992;18.604;2023-04-01T14:12:04;5.90;;;2.60;;
54539;SDS011;40438;52.992;18.604;2023-04-01T14:14:40;5.05;;;2.72;;
54539;SDS011;40438;52.992;18.604;2023-04-01T14:17:31;4.72;;;2.60;;
54539;SDS011;40438;52.992;18.604;2023-04-01T14:20:21;6.30;;;2.35;;
54539;SDS011;40438;52.992;18.604;2023-04-01T14:22:57;7.22;;;2.30;;
54539;SDS011;40438;52.992;18.604;2023-04-01T14:28:39;2.50;;;2.15;;
54539;SDS011;40438;52.992;18.604;2023-04-01T14:31:23;4.85;;;2.25;;
54539;SDS011;40438;52.992;18.604;2023-04-01T14:34:00;3.33;;;2.35;;
54539;SDS011;40438;52.992;18.604;2023-04-01T14:36:49;5.63;;;2.53;;
54539;SDS011;40438;52.992;18.604;2023-04-01T14:39:29;4.40;;;2.50;;
54539;SDS011;40438;52.992;18.604;2023-04-01T14:42:14;2.45;;;2.17;;
54539;SDS011;40438;52.992;18.604;2023-04-01T14:45:08;4.57;;;2.45;;
54539;SDS011;40438;52.992;18.604;2023-04-01T14:50:25;4.93;;;2.90;;
54539;SDS011;40438;52.992;18.604;2023-04-01T14:52:58;8.07;;;2.47;;
54539;SDS011;40438;52.992;18.604;2023-04-01T14:55:42;4.82;;;2.17;;
54539;SDS011;40438;52.992;18.604;2023-04-01T14:58:15;3.05;;;2.55;;
54539;SDS011;40438;52.992;18.604;2023-04-01T15:00:50;5.85;;;2.42;;
54539;SDS011;40438;52.992;18.604;2023-04-01T15:03:26;7.20;;;2.88;;
54539;SDS011;40438;52.992;18.604;2023-04-01T15:08:26;3.72;;;2.35;;
54539;SDS011;40438;52.992;18.604;2023-04-01T15:13:59;5.43;;;2.30;;
54539;SDS011;40438;52.992;18.604;2023-04-01T15:16:45;5.57;;;2.10;;
54539;SDS011;40438;52.992;18.604;2023-04-01T15:19:23;3.30;;;2.28;;
54539;SDS011;40438;52.992;18.604;2023-04-01T15:22:05;7.00;;;2.15;;
54539;SDS011;40438;52.992;18.604;2023-04-01T15:24:47;5.30;;;2.83;;
54539;SDS011;40438;52.992;18.604;2023-04-01T15:27:25;6.18;;;2.25;;
54539;SDS011;40438;52.992;18.604;2023-04-01T15:30:07;4.10;;;2.45;;
54539;SDS011;40438;52.992;18.604;2023-04-01T15:32:49;3.45;;;2.67;;
54539;SDS011;40438;52.992;18.604;2023-04-01T15:35:32;3.33;;;2.15;;
54539;SDS011;40438;52.992;18.604;2023-04-01T15:38:06;3.47;;;2.70;;
54539;SDS011;40438;52.992;18.604;2023-04-01T15:40:42;4.82;;;2.40;;
54539;SDS011;40438;52.992;18.604;2023-04-01T15:45:46;5.40;;;2.40;;
54539;SDS011;40438;52.992;18.604;2023-04-01T15:48:24;3.17;;;2.22;;
54539;SDS011;40438;52.992;18.604;2023-04-01T15:51:02;5.45;;;2.63;;
54539;SDS011;40438;52.992;18.604;2023-04-01T15:53:41;5.85;;;2.30;;
54539;SDS011;40438;52.992;18.604;2023-04-01T15:56:18;4.35;;;2.40;;
54539;SDS011;40438;52.992;18.604;2023-04-01T15:58:56;4.95;;;2.60;;
54539;SDS011;40438;52.992;18.604;2023-04-01T16:01:35;2.90;;;2.30;;
54539;SDS011;40438;52.992;18.604;2023-04-01T16:04:17;2.45;;;2.10;;
54539;SDS011;40438;52.992;18.604;2023-04-01T16:06:58;5.40;;;2.90;;
54539;SDS011;40438;52.992;18.604;2023-04-01T16:09:43;4.35;;;2.83;;
54539;SDS011;40438;52.992;18.604;2023-04-01T16:12:19;5.57;;;2.80;;
54539;SDS011;40438;52.992;18.604;2023-04-01T16:15:01;4.45;;;2.33;;
54539;SDS011;40438;52.992;18.604;2023-04-01T16:17:49;5.20;;;2.70;;
54539;SDS011;40438;52.992;18.604;2023-04-01T16:20:35;6.13;;;2.47;;
54539;SDS011;40438;52.992;18.604;2023-04-01T16:23:12;3.22;;;2.45;;
54539;SDS011;40438;52.992;18.604;2023-04-01T16:25:44;3.22;;;2.53;;
54539;SDS011;40438;52.992;18.604;2023-04-01T16:28:19;3.57;;;3.00;;
54539;SDS011;40438;52.992;18.604;2023-04-01T16:30:50;5.00;;;2.75;;
54539;SDS011;40438;52.992;18.604;2023-04-01T16:33:22;4.80;;;2.30;;
54539;SDS011;40438;52.992;18.604;2023-04-01T16:35:57;5.32;;;2.60;;
54539;SDS011;40438;52.992;18.604;2023-04-01T16:38:31;3.28;;;2.40;;
54539;SDS011;40438;52.992;18.604;2023-04-01T16:41:14;4.72;;;2.60;;
54539;SDS011;40438;52.992;18.604;2023-04-01T16:43:44;3.55;;;2.72;;
54539;SDS011;40438;52.992;18.604;2023-04-01T16:46:14;5.57;;;2.90;;
54539;SDS011;40438;52.992;18.604;2023-04-01T16:48:54;3.83;;;2.63;;
54539;SDS011;40438;52.992;18.604;2023-04-01T16:51:25;9.30;;;2.80;;
54539;SDS011;40438;52.992;18.604;2023-04-01T16:54:02;4.95;;;2.40;;
54539;SDS011;40438;52.992;18.604;2023-04-01T16:56:36;8.60;;;3.08;;
54539;SDS011;40438;52.992;18.604;2023-04-01T16:59:07;3.25;;;2.40;;
54539;SDS011;40438;52.992;18.604;2023-04-01T17:01:40;4.10;;;2.63;;
54539;SDS011;40438;52.992;18.604;2023-04-01T17:04:13;5.43;;;2.73;;
54539;SDS011;40438;52.992;18.604;2023-04-01T17:06:47;4.15;;;2.53;;
54539;SDS011;40438;52.992;18.604;2023-04-01T17:09:22;5.18;;;2.83;;
54539;SDS011;40438;52.992;18.604;2023-04-01T17:11:57;5.68;;;3.05;;
54539;SDS011;40438;52.992;18.604;2023-04-01T17:14:32;6.85;;;2.45;;
54539;SDS011;40438;52.992;18.604;2023-04-01T17:17:17;7.10;;;2.80;;
54539;SDS011;40438;52.992;18.604;2023-04-01T17:19:56;4.57;;;2.53;;
54539;SDS011;40438;52.992;18.604;2023-04-01T17:22:40;5.40;;;2.35;;
54539;SDS011;40438;52.992;18.604;2023-04-01T17:25:19;4.70;;;2.70;;